Impacts TAF Board INFO
FOR SITUATIONAL AWARENESS. NOT TO BE USED FOR FLIGHT PLANNING PURPOSES.
IDs:

KSFO - San Francisco Intl, CA, US

Issued at 0901 UTC 17 Dec 2017
Updated at 0948 UTC 17 Dec 2017
Potential Impact None Slight Moderate High
Time0856Z 17/10Z 17/11Z 17/12Z 17/13Z 17/14Z 17/15Z 17/16Z 17/17Z 17/18Z 17/19Z 17/20Z 17/21Z 17/22Z>>
Type OBS PRVL PRVL PRVL PRVL PRVL PRVL PRVL PRVL PRVL PRVL PRVL PRVL PRVL
VIS 10 >6 >6 >6 >6 >6 >6 >6 >6 >6 >6 >6 >6 >6
CIG -- -- -- -- -- -- -- -- -- -- -- -- -- --
Cover CLR SKC SKC SKC SKC SKC SKC SKC SKC SKC SKC SKC SKC SKC
FltCat VFR VFR VFR VFR VFR VFR VFR VFR VFR VFR VFR VFR VFR VFR
WX -- -- -- -- -- -- -- -- -- -- -- -- -- --
WDir 360 340 340 340 340 340 340 40 40 40 40 40 350 350
WSpd 13 15 15 10 10 10 10 5 5 5 5 5 4 4
WGst -- -- -- -- -- -- -- -- -- -- -- -- -- --

Raw TAF
KSFO 170901Z 1709/1812 34015KT P6SM SKC WS020/36040KT
  FM171200 34010KT P6SM SKC WS020/36030KT
  FM171600 04005KT P6SM SKC WS020/05030KT
  FM172100 35004KT P6SM SKC WS020/02025KT
  FM180300 02004KT P6SM SKC


Raw METAR
KSFO 170856Z 36013KT 10SM CLR 13/01 A2999 RMK AO2 SLP155 T01330011 53006
KSFO 170756Z 36012KT 10SM SCT200 14/M01 A2997 RMK AO2 SLP150 T01391011 401780094
KSFO 170656Z 29007KT 10SM FEW180 14/M06 A2998 RMK AO2 SLP152 T01391061

METAR Board
Radar Display
Forecast Discussion

FOR SITUATIONAL AWARENESS. NOT TO BE USED FOR FLIGHT PLANNING PURPOSES.